Air Resources Laboratory banner image
Air Resources Laboratory web site National Oceanic and Atmospheric Administration (NOAA)

tn metar


KBNA 180253Z 01008KT 10SM FEW045 SCT250 28/22 A3001 RMK AO2 SLP153 T02830222
 51019=
KCHA 180253Z 00000KT 10SM FEW110 BKN250 23/22 A3000 RMK AO2 SLP151 T02330217
 51007 $=
KCKV 180252Z AUTO 03004KT 10SM CLR 26/21 A3001 RMK AO2 SLP156 T02560211 51014=
KCSV 180253Z AUTO 00000KT 5SM BR FEW028 SCT038 23/22 A3008 RMK AO2 LTG DSNT SW
 SLP162 60008 T02280217 53012=
KMKL 180253Z AUTO 00000KT 9SM CLR 26/26 A3000 RMK AO2 SLP153 T02560256 51012=
KNQA 180250Z 02003KT 10SM FEW045 BKN250 27/24 A3000=
KOQT 180253Z AUTO 00000KT 10SM FEW036 24/24 A3003 RMK AO2 SLP150 T02440239
 53010=
KTRI 180253Z 00000KT 10SM FEW039 SCT047 BKN130 22/22 A3003 RMK AO2 SLP143
 T02220222 50005 $=
KTYS 180253Z 00000KT 10SM FEW120 SCT250 25/23 A3001 RMK AO2 SLP148 OCNL LTG
 DSNT SW CB DSNT SW T02500228 51012=